Estación Meteorológica Peña el Pijo (Robertgarden) [ 04/23/17 09:54:39 CEST ]

Fecha Hora Presion(HPa) Temp (°C) Humedad % Rocio (°C) Viento ( m/s) Direccion Lluvia 1Hora(mm) Lluvia 24H(mm) LLuvia Total(mm)
2017-Apr-11 01:01:44 1014.800 6.4 57 -1.5         1357.67
2017-Apr-11 02:01:47 1014.700 4.9 59 -2.4         1357.67
2017-Apr-11 03:01:55 1014.300 4.4 60 -2.7         1357.67
2017-Apr-11 04:01:59 1014.000 3.9 62 -2.8         1357.67
2017-Apr-11 05:01:47 1013.700 3.6 62 -3.0         1357.67
2017-Apr-11 06:01:47 1013.400 3.5 62 -3.1         1357.67
2017-Apr-11 07:01:51 1013.600 2.7 62 -3.9         1357.67
2017-Apr-11 08:01:55 1013.800 2.6 64 -3.5         1357.67
2017-Apr-11 09:01:45 1014.000 7.4 60 0.2         1357.67
2017-Apr-11 10:01:53 1014.100 14.5 40 1.1         1357.67
2017-Apr-11 11:01:46 1013.900 21.6 26 1.1         1357.67
2017-Apr-11 12:01:33 1014.000 22.9 25 1.6 1.2 SE     1357.67
2017-Apr-11 13:01:57 1013.800 23.8 24 1.8 1.3 S     1357.67
2017-Apr-11 14:01:51 1013.400 23.2 22 0.2 1.5 SSE     1357.67
2017-Apr-11 15:01:44 1012.900 24.1 22 0.9 1.0 SE     1357.67
2017-Apr-11 16:01:56 1012.600 21.0 25 0.0         1357.67
2017-Apr-11 17:01:43 1012.000 25.1 23 2.3         1357.67
2017-Apr-11 18:01:55 1011.600 21.6 25 0.5 1.2 SW     1357.67
2017-Apr-11 19:01:49 1011.300 22.9 24 1.1         1357.67
2017-Apr-11 20:01:50 1010.900 19.9 25 -0.9 1.1 N     1357.67
2017-Apr-11 21:01:50 1011.400 15.6 34 -0.3         1357.67
2017-Apr-11 22:01:50 1012.400 13.5 41 0.5         1357.67
2017-Apr-11 23:01:45 1013.000 10.4 48 -0.2         1357.67

Temperatura Máxima:25°    Temperatura Mínima:
Presión Máxima:1014.800 Hpa    Presión Mínima:1010.900 Hpa


Volver